createdAt,value
2019-06-07T00:00:39.771Z,14.17
2019-06-07T00:01:11.714Z,14.17
2019-06-07T00:05:09.375Z,14.08
2019-06-07T00:10:08.961Z,14.07
2019-06-07T00:15:20.031Z,14.17
2019-06-07T00:20:14.837Z,14.03
2019-06-07T00:25:06.402Z,13.81
2019-06-07T00:30:50.449Z,13.65
2019-06-07T00:35:06.555Z,13.7
2019-06-07T00:40:27.290Z,14.04
2019-06-07T00:44:07.145Z,14.08
2019-06-07T00:50:06.826Z,14.07
2019-06-07T00:54:07.558Z,14.05
2019-06-07T00:59:18.161Z,13.89
2019-06-07T01:04:09.394Z,13.81
2019-06-07T01:09:07.546Z,13.76
2019-06-07T01:14:07.973Z,13.83
2019-06-07T01:19:06.959Z,13.8
2019-06-07T01:24:12.428Z,13.73
2019-06-07T01:28:06.730Z,13.55
2019-06-07T01:33:06.580Z,13.37
2019-06-07T01:38:06.861Z,13.27
2019-06-07T01:43:06.439Z,13.21
2019-06-07T01:48:06.581Z,13.09
2019-06-07T01:53:07.078Z,13.04
2019-06-07T01:57:07.379Z,13.04
2019-06-07T02:02:06.855Z,13
2019-06-07T02:07:07.086Z,12.87
2019-06-07T02:12:43.867Z,12.7
2019-06-07T02:17:07.241Z,12.57
2019-06-07T02:22:06.473Z,12.28
2019-06-07T02:27:06.608Z,12.01
2019-06-07T02:31:07.376Z,11.82
2019-06-07T02:36:06.715Z,11.78
2019-06-07T02:41:07.456Z,11.69
2019-06-07T02:46:45.747Z,11.61
2019-06-07T02:51:06.708Z,11.53
2019-06-07T02:56:58.902Z,11.55
2019-06-07T03:01:10.115Z,11.59
2019-06-07T03:06:06.587Z,11.59
2019-06-07T03:10:07.682Z,11.69
2019-06-07T03:15:08.907Z,11.72
2019-06-07T03:20:06.978Z,11.71
2019-06-07T03:25:07.278Z,11.64
2019-06-07T03:30:35.789Z,11.51
2019-06-07T03:35:07.457Z,11.49
2019-06-07T03:40:07.002Z,11.51
2019-06-07T03:45:09.038Z,11.81
2019-06-07T03:49:07.720Z,12.14
2019-06-07T03:54:07.024Z,12.37
2019-06-07T03:59:07.273Z,12.47
2019-06-07T04:04:06.733Z,12.53
2019-06-07T04:09:07.508Z,12.82
2019-06-07T04:14:06.992Z,13.07
2019-06-07T04:19:07.137Z,13.29
2019-06-07T04:23:34.875Z,13.53
2019-06-07T04:28:07.280Z,13.81
2019-06-07T04:33:07.187Z,13.79
2019-06-07T04:38:06.339Z,13.9
2019-06-07T04:43:07.120Z,13.8
2019-06-07T04:48:06.323Z,13.82
2019-06-07T04:53:06.517Z,13.93
2019-06-07T04:58:06.758Z,14.04
2019-06-07T05:03:06.758Z,14.09
2019-06-07T05:07:07.422Z,14.34
2019-06-07T05:08:29.903Z,14.34
2019-06-07T05:12:06.530Z,14.49
2019-06-07T05:17:07.203Z,14.41
2019-06-07T05:22:06.874Z,14.71
2019-06-07T05:27:07.235Z,14.63
2019-06-07T05:32:07.337Z,14.69
2019-06-07T05:37:12.756Z,15
2019-06-07T05:42:07.551Z,15.67
2019-06-07T05:46:07.027Z,16.32
2019-06-07T05:51:06.477Z,16.74
2019-06-07T05:56:06.890Z,16.95
2019-06-07T06:01:57.227Z,17.18
2019-06-07T06:06:07.082Z,18.73
2019-06-07T06:11:06.957Z,18.4
2019-06-07T06:16:06.940Z,20.37
2019-06-07T06:20:07.670Z,20.5
2019-06-07T06:26:07.133Z,20.24
2019-06-07T06:30:09.157Z,21.32
2019-06-07T06:31:06.807Z,21.32
2019-06-07T06:35:07.007Z,18.56
2019-06-07T06:40:06.635Z,18.27
2019-06-07T06:45:07.924Z,18.73
2019-06-07T06:50:07.153Z,18.38
2019-06-07T06:55:06.305Z,19.08
2019-06-07T07:00:08.661Z,20.73
2019-06-07T07:05:06.568Z,20.36
2019-06-07T07:09:07.384Z,21.83
2019-06-07T07:14:06.607Z,21.18
2019-06-07T07:19:06.627Z,20.73
2019-06-07T07:24:22.314Z,22.62
2019-06-07T07:29:06.716Z,22.88
2019-06-07T07:34:35.175Z,22.8
2019-06-07T07:39:07.344Z,24.12
2019-06-07T07:43:07.567Z,22.78
2019-06-07T07:48:18.925Z,23.64
2019-06-07T07:53:07.223Z,23.06
2019-06-07T07:58:07.457Z,23.09
2019-06-07T08:03:06.826Z,23.22
2019-06-07T08:08:08.971Z,22.44
2019-06-07T08:17:07.102Z,22.61
2019-06-07T08:22:07.371Z,21.72
2019-06-07T08:27:27.435Z,20.93
2019-06-07T08:32:07.359Z,20.91
2019-06-07T08:37:06.510Z,21.27
2019-06-07T08:42:36.786Z,21.27
2019-06-07T08:46:08.623Z,21.81
2019-06-07T08:51:09.292Z,22.19
2019-06-07T08:56:12.206Z,21.54
2019-06-07T09:01:09.851Z,21.54
2019-06-07T09:07:18.710Z,22.71
2019-06-07T09:11:11.802Z,22.05
2019-06-07T09:16:09.286Z,21.74
2019-06-07T09:25:22.122Z,21.5
2019-06-07T09:30:19.395Z,22.21
2019-06-07T09:35:18.232Z,22.54
2019-06-07T09:40:28.187Z,23.03
2019-06-07T09:45:14.608Z,22.53
2019-06-07T09:50:13.039Z,22.09
2019-06-07T09:54:09.214Z,22.52
2019-06-07T09:55:24.624Z,22.52
2019-06-07T09:59:13.434Z,22.07
2019-06-07T10:04:31.892Z,21.76
2019-06-07T10:14:08.685Z,22.19
2019-06-07T10:19:10.298Z,22.54
2019-06-07T10:24:08.078Z,25.04
2019-06-07T10:28:10.540Z,22.94
2019-06-07T10:33:10.220Z,22.23
2019-06-07T10:38:08.374Z,22.4
2019-06-07T10:43:09.091Z,23.14
2019-06-07T10:48:08.244Z,24.14
2019-06-07T10:53:08.337Z,24.48
2019-06-07T10:57:14.193Z,25.29
2019-06-07T11:02:11.748Z,25.4
2019-06-07T11:07:09.974Z,23.77
2019-06-07T11:12:08.760Z,23.1
2019-06-07T11:17:11.158Z,22.75
2019-06-07T11:22:08.349Z,22.33
2019-06-07T11:27:13.102Z,23
2019-06-07T11:32:08.761Z,25.1
2019-06-07T11:37:13.206Z,24.51
2019-06-07T11:41:09.139Z,24.91
2019-06-07T11:46:08.542Z,25.28
2019-06-07T11:51:08.894Z,23.07
2019-06-07T11:56:08.138Z,23.34
2019-06-07T12:01:11.674Z,24.32
2019-06-07T12:06:10.236Z,23.29
2019-06-07T12:10:08.440Z,24.12
2019-06-07T12:15:09.205Z,24.64
2019-06-07T12:20:14.290Z,25.66
2019-06-07T12:25:06.733Z,24
2019-06-07T12:30:25.784Z,23.51
2019-06-07T12:35:06.947Z,24.38
2019-06-07T12:40:07.692Z,25.17
2019-06-07T12:45:08.803Z,26.08
2019-06-07T12:49:06.561Z,26.54
2019-06-07T12:54:06.692Z,25.59
2019-06-07T12:59:06.830Z,26.02
2019-06-07T13:04:06.719Z,25.88
2019-06-07T13:09:07.270Z,25.17
2019-06-07T13:14:07.534Z,26.02
2019-06-07T13:18:07.049Z,25.48
2019-06-07T13:23:06.303Z,25.4
2019-06-07T13:28:06.551Z,25.12
2019-06-07T13:33:06.648Z,25.78
2019-06-07T13:38:06.890Z,25.92
2019-06-07T13:43:06.576Z,26.11
2019-06-07T13:48:07.189Z,26.18
2019-06-07T13:53:06.754Z,26.11
2019-06-07T13:58:06.985Z,26.05
2019-06-07T14:02:06.552Z,25.91
2019-06-07T14:07:06.813Z,26.42
2019-06-07T14:12:07.309Z,26.43
2019-06-07T14:17:06.627Z,26.73
2019-06-07T14:22:06.819Z,26.34
2019-06-07T14:27:06.704Z,26.06
2019-06-07T14:32:07.178Z,26.6
2019-06-07T14:36:06.593Z,26.36
2019-06-07T14:41:07.162Z,26.41
2019-06-07T14:46:06.949Z,26.6
2019-06-07T14:51:07.412Z,27.11
2019-06-07T14:56:06.738Z,26.8
2019-06-07T15:06:07.000Z,27.02
2019-06-07T15:10:07.228Z,26.89
2019-06-07T15:15:09.215Z,27.09
2019-06-07T15:20:07.668Z,26.94
2019-06-07T15:25:06.953Z,26.89
2019-06-07T15:30:12.165Z,26.82
2019-06-07T15:35:06.757Z,26.47
2019-06-07T15:39:07.994Z,26.01
2019-06-07T15:44:07.176Z,26.28
2019-06-07T15:49:06.416Z,26.17
2019-06-07T15:54:06.710Z,26.22
2019-06-07T15:59:07.234Z,26.36
2019-06-07T16:04:07.450Z,26.4
2019-06-07T16:09:07.475Z,26.17
2019-06-07T16:13:07.537Z,26.04
2019-06-07T16:14:07.263Z,26.04
2019-06-07T16:18:07.387Z,25.78
2019-06-07T16:23:06.503Z,25.95
2019-06-07T16:28:06.975Z,25.93
2019-06-07T16:33:06.821Z,25.72
2019-06-07T16:38:07.022Z,25.27
2019-06-07T16:43:18.346Z,25.32
2019-06-07T16:47:07.325Z,25.75
2019-06-07T16:52:06.783Z,25.63
2019-06-07T16:57:07.069Z,25.8
2019-06-07T17:02:06.991Z,25.43
2019-06-07T17:07:07.267Z,25.79
2019-06-07T17:12:06.929Z,25.4
2019-06-07T17:17:06.744Z,25.62
2019-06-07T17:21:07.005Z,25.43
2019-06-07T17:26:06.039Z,25.48
2019-06-07T17:31:07.086Z,25.43
2019-06-07T17:36:07.591Z,25.08
2019-06-07T17:41:07.381Z,25.36
2019-06-07T17:46:07.545Z,25.15
2019-06-07T17:51:06.958Z,25.12
2019-06-07T17:55:07.622Z,25.05
2019-06-07T17:56:06.660Z,25.05
2019-06-07T18:00:29.861Z,24.91
2019-06-07T18:05:07.537Z,24.64
2019-06-07T18:10:07.351Z,24.55
2019-06-07T18:15:07.779Z,24.4
2019-06-07T18:20:07.017Z,24.21
2019-06-07T18:25:07.375Z,24.08
2019-06-07T18:29:06.867Z,24.02
2019-06-07T18:34:06.986Z,23.67
2019-06-07T18:39:07.797Z,23.51
2019-06-07T18:44:22.002Z,23.13
2019-06-07T18:49:06.709Z,22.78
2019-06-07T18:54:07.071Z,22.66
2019-06-07T18:59:06.816Z,22.55
2019-06-07T19:03:07.589Z,22.35
2019-06-07T19:08:06.877Z,22.26
2019-06-07T19:13:08.156Z,22.05
2019-06-07T19:18:08.330Z,21.9
2019-06-07T19:23:08.552Z,21.87
2019-06-07T19:28:07.452Z,21.77
2019-06-07T19:33:07.169Z,21.68
2019-06-07T19:37:07.327Z,21.48
2019-06-07T19:42:07.939Z,21.29
2019-06-07T19:47:12.096Z,21.21
2019-06-07T19:52:08.626Z,21.07
2019-06-07T19:57:07.050Z,21
2019-06-07T20:02:07.553Z,20.95
2019-06-07T20:07:07.300Z,20.77
2019-06-07T20:12:07.254Z,20.65
2019-06-07T20:16:07.653Z,20.49
2019-06-07T20:21:07.181Z,20.29
2019-06-07T20:26:08.840Z,20.16
2019-06-07T20:31:08.570Z,19.92
2019-06-07T20:36:07.180Z,19.75
2019-06-07T20:41:08.307Z,19.66
2019-06-07T20:46:08.871Z,19.79
2019-06-07T20:50:09.263Z,19.74
2019-06-07T20:51:08.519Z,19.74
2019-06-07T20:55:07.419Z,19.73
2019-06-07T21:05:10.206Z,19.62
2019-06-07T21:10:10.597Z,19.52
2019-06-07T21:15:15.019Z,19.42
2019-06-07T21:20:14.707Z,19.35
2019-06-07T21:25:09.186Z,19.37
2019-06-07T21:29:07.451Z,19.42
2019-06-07T21:34:12.566Z,19.5
2019-06-07T21:39:06.538Z,19.4
2019-06-07T21:44:06.613Z,19.5
2019-06-07T21:49:06.823Z,19.56
2019-06-07T21:54:12.717Z,19.53
2019-06-07T21:59:07.474Z,19.42
2019-06-07T22:03:07.707Z,19.41
2019-06-07T22:08:06.391Z,19.36
2019-06-07T22:13:08.357Z,19.2
2019-06-07T22:18:08.901Z,19.25
2019-06-07T22:23:07.180Z,19.27
2019-06-07T22:28:08.720Z,19.14
2019-06-07T22:33:08.560Z,19
2019-06-07T22:37:09.153Z,18.92
2019-06-07T22:42:07.145Z,18.76
2019-06-07T22:47:07.909Z,18.62
2019-06-07T22:52:15.174Z,18.52
2019-06-07T22:57:10.015Z,18.46
2019-06-07T23:02:10.343Z,18.46
2019-06-07T23:07:06.556Z,18.36
2019-06-07T23:12:07.117Z,18.21
2019-06-07T23:16:07.321Z,18.27
2019-06-07T23:17:07.318Z,18.27
2019-06-07T23:21:06.779Z,17.8
2019-06-07T23:26:06.922Z,17.68
2019-06-07T23:31:06.933Z,17.61
2019-06-07T23:36:07.089Z,17.15
2019-06-07T23:41:06.662Z,16.91
2019-06-07T23:46:06.929Z,16.73
2019-06-07T23:50:07.269Z,16.71
2019-06-07T23:51:06.570Z,16.71
2019-06-07T23:55:06.637Z,16.95
